Linn Creek, MO (65052)

8:02 AM CDT on July 29, 2014 (GMT -0500)
Near Big Surf (KMOLINNC2) Elev 902 ft | 38.07 °N, 92.69 °W | Change Station

Current weather conditions updated 2 minutes ago

Clear
Clear
62.2 °F
Feels Like 62.2 °F
N
0.0
Wind Variable Wind from WSW
Gusts 0.0 mph

Today is forecast to be nearly the same temperature as yesterday.

Today
High -- | Low -- °F
--% Chance of Precip.
Yesterday
High -- | Low -- °F
Precip. -- in
6:11 AM 8:22 PM
Waxing Crescent, 6% visible
Pressure 30.18 in
Visibility 10.0 miles
Clouds Clear
Dew Point 55 °F
Humidity 78%
Rainfall 0.00 in
Snow Depth Not available.
UV 1 out of 12
Pollen 6.40 out of 12
Air Quality Not available.
Flu Activity Not available.
METAR KH21 291255Z AUTO 00000KT 10SM CLR 18/13 A3018 RMK AO2

More Conditions Fewer Conditions

Pressure 30.18 in
Visibility 10.0 miles
Clouds Clear
Dew Point 55 °F
Humidity 78%
Rainfall 0.00 in
Snow Depth Not available.
UV 1 out of 12
Pollen 6.40 out of 12
Air Quality Not available.
Flu Activity Not available.
METAR KH21 291255Z AUTO 00000KT 10SM CLR 18/13 A3018 RMK AO2

More Conditions Fewer Conditions

10-Day Weather Forecast

Almanac

Astronomy

Jul. 29, 2014 Rise Set
Actual Time 6:11 AM CDT 8:22 PM CDT
Civil Twilight 5:41 AM CDT 8:52 PM CDT
Nautical Twilight 5:05 AM CDT 9:28 PM CDT
Astronomical Twilight 4:26 AM CDT 10:07 PM CDT
Moon 8:44 AM CDT 9:39 PM CDT
Length of Visible Light 15h 10m
Length of Day
14h 11m
Tomorrow will be 1m 47s shorter.
Waxing Crescent, 6% of the Moon is Illuminated
Today
Waxing Crescent
Aug 3
First Quarter
Aug 10
Full
Aug 17
Last Quarter
Aug 25
New

Today's Extremes

State Highs State Lows

Community

WunderPhotos

Upload Photos

1,738,706 photos uploaded!

Nearby

Snow Depth

Station Depth Elevation
No new snow has been reported.

Earthquake Activity

City Distance Mag. Time & Date
No recent earthquake activity has been reported nearby.
Minimum magnitude displayed is 2.5.

Coastal Water Temperatures

Place Temperature
No Stations Reporting

Nearby Weather Stations

Station Location Temp. Heat Index Dew Point Humidity Wind Precip. Elev Updated Type
Near Big Surf, Linn Creek, MO 62.2 °F - 55 °F 78% WSW  at  0.0 mph 0.00 in / hr 902 ft 8:00 AM CDT Normal
CAMDENTON, MO 63.9 °F - 58 °F 82% NNE  at  0.0 mph 0.00 in / hr 961 ft 7:59 AM CDT Normal
Bridal Cave, Camdenton, MO 61.1 °F - 59 °F 93% ENE  at  0.0 mph 0.00 in / hr 719 ft 8:02 AM CDT Rapid Fire
Santee Trail / Rainbow's End / Arnold's , Camdenton, MO 75.7 °F 78 °F 63 °F 64% SW  at  2.7 mph - / hr 702 ft 7:59 AM CDT Normal
Lake of the Ozarks MM21, Osage Beach, MO 65.8 °F - 61 °F 84% SSW  at  0.0 mph - / hr 699 ft 8:01 AM CDT Normal
Beginning of Indian Creek, Barnett, MO 65.3 °F - 60 °F 82% East  at  0.0 mph - / hr 679 ft 7:50 AM CDT Normal
Rural Lebanon, Lebanon, MO 56.0 °F - 55 °F 96% NE  at  0.0 mph 0.00 in / hr 1160 ft 8:02 AM CDT Rapid Fire
Eldon, MO 63.7 °F - 62 °F 95% North  at  0.0 mph 0.00 in / hr 918 ft 8:02 AM CDT Rapid Fire

Show More Stations Show Fewer Stations